Time;durP1;ratioP1;P1;durP2;ratioP2;P2;SDS_P1;SDS_P2;PMS_P1;PMS_P2;Temp;Humidity;BMP_temperature;BMP_pressure;BME280_temperature;BME280_humidity;BME280_pressure;Samples;Min_cycle;Max_cycle;Signal;HPM_P1;HPM_P2
2022/08/02 00:02:13;;;;;;;2.97;1.97;;;23.80;41.40;;;;;;5014381;28;20171;-46
2022/08/02 00:04:39;;;;;;;4.00;2.07;;;23.70;41.50;;;;;;5014209;28;20428;-46
2022/08/02 00:07:05;;;;;;;2.40;1.53;;;23.70;41.50;;;;;;5014085;28;20413;-46
2022/08/02 00:09:30;;;;;;;2.63;1.50;;;23.70;41.50;;;;;;5014277;28;20175;-46
2022/08/02 00:11:56;;;;;;;2.57;1.30;;;23.60;41.50;;;;;;5014384;28;20181;-47
2022/08/02 00:14:22;;;;;;;3.20;1.83;;;23.50;41.70;;;;;;5014058;28;20755;-47
2022/08/02 00:16:48;;;;;;;3.30;1.57;;;23.50;41.80;;;;;;5013877;28;20406;-46
2022/08/02 00:19:14;;;;;;;2.83;1.90;;;23.50;41.60;;;;;;5014032;28;20171;-46
2022/08/02 00:21:40;;;;;;;3.20;2.07;;;23.50;41.80;;;;;;5014051;28;20410;-47
2022/08/02 00:24:06;;;;;;;3.43;1.90;;;23.40;41.90;;;;;;5014063;28;20486;-46
2022/08/02 00:26:32;;;;;;;2.57;1.83;;;23.30;42.00;;;;;;5013812;28;20795;-46
2022/08/02 00:28:58;;;;;;;5.03;1.87;;;23.30;42.10;;;;;;5014151;28;20405;-46
2022/08/02 00:31:23;;;;;;;3.90;2.40;;;23.30;42.10;;;;;;5014140;28;20171;-46
2022/08/02 00:33:49;;;;;;;2.67;2.03;;;23.20;42.10;;;;;;5013844;28;20202;-46
2022/08/02 00:36:16;;;;;;;5.83;2.07;;;23.20;42.20;;;;;;5013806;28;20539;-46
2022/08/02 00:38:42;;;;;;;2.47;1.63;;;23.10;42.30;;;;;;5013348;28;20305;-46
2022/08/02 00:41:17;;;;;;;3.13;1.83;;;23.10;42.30;;;;;;5013433;28;20890;-46
2022/08/02 00:43:44;;;;;;;3.03;2.03;;;23.10;42.20;;;;;;5013687;28;20416;-46
2022/08/02 00:46:09;;;;;;;3.90;2.73;;;23.00;42.20;;;;;;5013330;28;20418;-47
2022/08/02 00:48:35;;;;;;;2.50;1.97;;;23.00;42.20;;;;;;5013739;28;20414;-46
2022/08/02 00:51:02;;;;;;;3.60;1.93;;;23.00;42.10;;;;;;5013473;28;20997;-47
2022/08/02 00:53:28;;;;;;;2.90;1.80;;;23.00;42.00;;;;;;5013377;28;20284;-46
2022/08/02 00:55:53;;;;;;;2.77;1.80;;;23.00;42.00;;;;;;5013373;28;20457;-46
2022/08/02 00:58:19;;;;;;;3.77;2.40;;;22.90;42.10;;;;;;5013441;28;20645;-46
2022/08/02 01:00:45;;;;;;;3.00;2.30;;;22.90;42.20;;;;;;5013381;28;20162;-45
2022/08/02 01:03:11;;;;;;;3.13;2.00;;;22.90;42.30;;;;;;5014551;28;20413;-46
2022/08/02 01:05:37;;;;;;;3.60;1.90;;;22.80;42.30;;;;;;5019221;28;20617;-46
2022/08/02 01:08:03;;;;;;;6.10;2.70;;;22.70;42.40;;;;;;5019317;28;20174;-47
2022/08/02 01:10:29;;;;;;;3.03;1.90;;;22.70;43.00;;;;;;5019038;28;20409;-47
2022/08/02 01:12:55;;;;;;;3.00;1.93;;;22.70;42.40;;;;;;5019348;28;20473;-46
2022/08/02 01:15:21;;;;;;;5.20;2.60;;;22.70;42.30;;;;;;5018900;28;20473;-47
2022/08/02 01:17:59;;;;;;;4.40;2.33;;;22.70;42.20;;;;;;5018653;28;20413;-46
2022/08/02 01:20:56;;;;;;;3.73;1.97;;;22.70;42.30;;;;;;5016615;28;20424;-46
2022/08/02 01:23:46;;;;;;;3.90;2.27;;;22.60;42.30;;;;;;5013414;28;20401;-47
2022/08/02 01:26:49;;;;;;;3.00;2.40;;;22.50;42.20;;;;;;5013282;28;20429;-48
2022/08/02 01:29:38;;;;;;;2.60;1.70;;;22.50;42.50;;;;;;5012964;28;20413;-47
2022/08/02 01:32:18;;;;;;;3.20;2.50;;;22.40;42.70;;;;;;5012696;28;20437;-48
2022/08/02 01:34:57;;;;;;;2.87;1.90;;;22.40;42.70;;;;;;5012716;28;21001;-46
2022/08/02 01:37:39;;;;;;;3.20;2.10;;;22.30;42.70;;;;;;5012864;28;20816;-47
2022/08/02 01:40:11;;;;;;;3.40;2.13;;;22.30;42.90;;;;;;5013029;28;20414;-47
2022/08/02 01:42:43;;;;;;;2.53;1.77;;;22.30;43.00;;;;;;5012868;28;20430;-47
2022/08/02 01:45:10;;;;;;;2.83;2.00;;;22.20;43.10;;;;;;5012568;28;20436;-47
2022/08/02 01:47:40;;;;;;;3.07;1.90;;;22.20;43.20;;;;;;5012529;28;20415;-46
2022/08/02 01:50:08;;;;;;;3.30;1.93;;;22.20;43.20;;;;;;5012310;28;20417;-47
2022/08/02 01:52:37;;;;;;;2.73;1.87;;;22.20;43.20;;;;;;5012372;28;20452;-46
2022/08/02 01:55:17;;;;;;;3.63;2.37;;;22.30;43.10;;;;;;5012556;28;20865;-47
2022/08/02 01:57:49;;;;;;;3.70;2.43;;;22.20;42.90;;;;;;5012551;28;20382;-46
2022/08/02 02:00:16;;;;;;;2.83;2.00;;;22.20;42.80;;;;;;5012501;28;20962;-46
2022/08/02 02:02:46;;;;;;;3.67;2.27;;;22.20;42.80;;;;;;5012654;28;20410;-45
2022/08/02 02:05:15;;;;;;;3.30;2.00;;;22.10;42.90;;;;;;5012223;28;20440;-47
2022/08/02 02:07:43;;;;;;;3.60;1.90;;;22.10;42.90;;;;;;5012108;28;20406;-47
2022/08/02 02:10:13;;;;;;;2.67;1.90;;;22.10;42.80;;;;;;5012416;28;20414;-46
2022/08/02 02:12:40;;;;;;;2.90;2.27;;;22.00;43.00;;;;;;5012509;28;20500;-46
2022/08/02 02:15:10;;;;;;;2.20;1.43;;;22.00;43.20;;;;;;5012610;28;20521;-47
2022/08/02 02:17:38;;;;;;;3.60;2.07;;;22.00;43.10;;;;;;5013014;28;20402;-48
2022/08/02 02:20:05;;;;;;;3.33;2.37;;;22.00;43.20;;;;;;5012458;28;20451;-46
2022/08/02 02:22:31;;;;;;;2.50;1.77;;;22.00;43.20;;;;;;5012919;28;20487;-46
2022/08/02 02:24:58;;;;;;;3.40;2.00;;;22.00;43.30;;;;;;5012480;28;20462;-45
2022/08/02 02:27:24;;;;;;;3.30;2.43;;;22.00;43.50;;;;;;5012355;28;20436;-45
2022/08/02 02:29:52;;;;;;;2.97;2.10;;;22.00;43.60;;;;;;5012723;28;20406;-45
2022/08/02 02:32:20;;;;;;;3.40;2.60;;;22.00;43.60;;;;;;5013025;28;20409;-46
2022/08/02 02:34:48;;;;;;;3.37;2.80;;;22.00;43.60;;;;;;5012467;28;20429;-45
2022/08/02 02:37:21;;;;;;;4.40;2.50;;;22.00;43.70;;;;;;5011894;28;20909;-46
2022/08/02 02:39:50;;;;;;;3.23;2.10;;;22.00;43.60;;;;;;5012057;28;20976;-46
2022/08/02 02:42:18;;;;;;;3.60;2.43;;;22.00;43.60;;;;;;5012048;28;20935;-46
2022/08/02 02:44:46;;;;;;;2.60;1.77;;;22.00;43.50;;;;;;5011854;28;20930;-46
2022/08/02 02:47:15;;;;;;;2.80;1.80;;;22.00;43.50;;;;;;5018064;23;20489;-48
2022/08/02 02:49:45;;;;;;;3.27;2.30;;;22.00;43.60;;;;;;5011865;28;20425;-47
2022/08/02 02:52:13;;;;;;;3.13;2.00;;;21.90;43.60;;;;;;5011837;28;20432;-47
2022/08/02 02:54:40;;;;;;;4.23;2.70;;;21.90;43.50;;;;;;5011916;28;20445;-48
2022/08/02 02:57:07;;;;;;;3.80;2.60;;;21.80;43.60;;;;;;5011635;28;20422;-47
2022/08/02 02:59:34;;;;;;;3.10;2.00;;;21.80;43.60;;;;;;5011878;28;20405;-45
2022/08/02 03:02:01;;;;;;;4.07;2.63;;;21.80;43.70;;;;;;5012248;28;20432;-45
2022/08/02 03:04:28;;;;;;;3.87;2.70;;;21.80;43.70;;;;;;5015556;28;20797;-45
2022/08/02 03:06:54;;;;;;;2.60;1.70;;;21.80;43.70;;;;;;5015175;28;20848;-45
2022/08/02 03:09:20;;;;;;;2.77;2.17;;;21.80;43.60;;;;;;5015710;28;20413;-44
2022/08/02 03:11:46;;;;;;;3.30;2.20;;;21.70;43.50;;;;;;5015466;28;20414;-45
2022/08/02 03:14:12;;;;;;;3.97;2.70;;;21.70;43.60;;;;;;5015263;28;20461;-45
2022/08/02 03:16:52;;;;;;;3.50;2.37;;;21.70;43.80;;;;;;5015143;28;20522;-45
2022/08/02 03:19:20;;;;;;;2.97;1.77;;;21.70;43.70;;;;;;5015423;28;20401;-45
2022/08/02 03:21:47;;;;;;;2.73;2.00;;;21.60;43.60;;;;;;5015379;28;20397;-45
2022/08/02 03:24:14;;;;;;;3.80;2.50;;;21.60;43.60;;;;;;5015511;28;20413;-46
2022/08/02 03:26:40;;;;;;;2.77;1.90;;;21.70;43.40;;;;;;5015150;28;20885;-45
2022/08/02 03:29:07;;;;;;;3.23;2.30;;;21.70;43.50;;;;;;5015929;28;20753;-44
2022/08/02 03:31:34;;;;;;;3.50;3.00;;;21.70;43.50;;;;;;5015871;28;20410;-45
2022/08/02 03:34:01;;;;;;;5.60;3.40;;;21.60;43.60;;;;;;5015729;28;20453;-46
2022/08/02 03:36:31;;;;;;;2.47;1.90;;;21.50;43.90;;;;;;5014863;28;20421;-45
2022/08/02 03:39:00;;;;;;;3.80;2.60;;;21.60;43.80;;;;;;5014991;28;20481;-45
2022/08/02 03:41:26;;;;;;;3.50;2.40;;;21.50;44.50;;;;;;5014851;28;20897;-46
2022/08/02 03:43:53;;;;;;;3.17;2.17;;;21.60;43.90;;;;;;5014739;28;20413;-45
2022/08/02 03:46:22;;;;;;;5.20;2.57;;;21.60;44.00;;;;;;5014369;28;20456;-46
2022/08/02 03:48:50;;;;;;;2.80;1.50;;;21.60;44.00;;;;;;5014997;28;20410;-47
2022/08/02 03:51:17;;;;;;;3.63;2.33;;;21.60;44.20;;;;;;5014630;28;20492;-45
2022/08/02 03:53:43;;;;;;;3.33;2.13;;;21.60;44.20;;;;;;5014511;28;20442;-45
2022/08/02 03:56:09;;;;;;;5.10;2.60;;;21.70;44.20;;;;;;5014263;28;20408;-45
2022/08/02 03:58:35;;;;;;;4.30;1.80;;;21.60;44.10;;;;;;5014528;28;20904;-45
2022/08/02 04:01:01;;;;;;;5.27;2.60;;;21.70;44.20;;;;;;5014398;28;20405;-45
2022/08/02 04:03:28;;;;;;;4.23;2.37;;;21.70;44.30;;;;;;5014377;28;20236;-45
2022/08/02 04:05:54;;;;;;;9.07;2.50;;;21.70;44.30;;;;;;5014079;28;20446;-47
2022/08/02 04:08:20;;;;;;;12.60;2.80;;;21.70;44.30;;;;;;5014319;28;20444;-46
2022/08/02 04:13:35;;;;;;;4.90;2.00;;;21.80;44.20;;;;;;5014291;28;20198;-47
2022/08/02 04:16:19;;;;;;;4.37;1.60;;;21.80;44.30;;;;;;5013888;28;20414;-45
2022/08/02 04:19:09;;;;;;;3.70;2.40;;;21.80;44.60;;;;;;5014904;28;20382;-44
2022/08/02 04:21:40;;;;;;;2.50;1.50;;;21.80;44.70;;;;;;5013736;28;20417;-44
2022/08/02 04:24:08;;;;;;;4.93;3.17;;;21.90;44.90;;;;;;5014224;28;20378;-44
2022/08/02 04:26:35;;;;;;;2.90;2.53;;;21.90;45.00;;;;;;5014090;28;20516;-44
2022/08/02 04:29:02;;;;;;;3.70;1.40;;;22.00;45.20;;;;;;5014923;28;20444;-46
2022/08/02 04:31:28;;;;;;;3.40;1.67;;;22.00;45.10;;;;;;5015611;28;20908;-44
2022/08/02 04:33:54;;;;;;;5.60;2.23;;;22.10;45.10;;;;;;5015389;28;20473;-44
2022/08/02 04:36:21;;;;;;;2.77;1.73;;;22.20;45.10;;;;;;5015110;28;20512;-47
2022/08/02 04:38:49;;;;;;;2.83;1.93;;;22.30;45.20;;;;;;5014001;28;20760;-47
2022/08/02 04:41:15;;;;;;;3.03;1.87;;;22.30;45.20;;;;;;5013651;28;20438;-48
2022/08/02 04:43:40;;;;;;;3.37;2.27;;;22.30;45.10;;;;;;5013660;28;20483;-47
2022/08/02 04:46:06;;;;;;;3.00;2.00;;;22.40;45.20;;;;;;5013393;28;20456;-46
2022/08/02 04:48:32;;;;;;;3.20;2.13;;;22.40;45.40;;;;;;5013876;28;21123;-46
2022/08/02 04:50:58;;;;;;;3.00;2.07;;;22.50;45.50;;;;;;5013494;28;20401;-45
2022/08/02 04:53:24;;;;;;;3.20;2.20;;;22.50;45.40;;;;;;5013356;28;20661;-46
2022/08/02 04:55:50;;;;;;;3.07;1.80;;;22.50;45.60;;;;;;5013246;28;20456;-45
2022/08/02 04:58:16;;;;;;;2.80;2.10;;;22.50;45.50;;;;;;5013398;28;20429;-45
2022/08/02 05:00:42;;;;;;;2.40;1.60;;;22.60;45.40;;;;;;5013337;28;20171;-45
2022/08/02 05:03:08;;;;;;;3.47;1.80;;;22.60;45.30;;;;;;5013589;28;20270;-45
2022/08/02 05:05:34;;;;;;;3.43;2.07;;;22.70;45.40;;;;;;5013030;28;20501;-46
2022/08/02 05:08:00;;;;;;;5.10;2.10;;;22.80;45.30;;;;;;5013485;28;20202;-45
2022/08/02 05:10:26;;;;;;;2.87;2.00;;;22.80;45.10;;;;;;5013457;28;20406;-45
2022/08/02 05:12:52;;;;;;;6.13;2.10;;;22.90;45.00;;;;;;5013276;28;20975;-44
2022/08/02 05:15:18;;;;;;;3.80;2.40;;;23.00;45.00;;;;;;5012987;28;20204;-44
2022/08/02 05:17:45;;;;;;;4.50;2.50;;;23.00;45.00;;;;;;5012819;28;20183;-45
2022/08/02 05:20:15;;;;;;;5.60;2.40;;;23.10;45.10;;;;;;5012898;28;20459;-46
2022/08/02 05:22:41;;;;;;;4.00;2.60;;;23.10;44.80;;;;;;5013144;28;20418;-45
2022/08/02 05:25:07;;;;;;;4.20;2.40;;;23.10;44.70;;;;;;5012502;28;20409;-45
2022/08/02 05:27:34;;;;;;;4.37;3.30;;;23.10;44.70;;;;;;5012716;28;20429;-46
2022/08/02 05:30:00;;;;;;;2.90;1.80;;;23.20;45.40;;;;;;5012824;28;20897;-46
2022/08/02 05:32:25;;;;;;;4.80;2.80;;;23.20;44.70;;;;;;5012991;28;20416;-45
2022/08/02 05:34:52;;;;;;;4.77;2.43;;;23.40;44.60;;;;;;5012694;28;20921;-45
2022/08/02 05:37:18;;;;;;;4.50;2.00;;;23.40;44.60;;;;;;5012631;28;20606;-46
2022/08/02 05:39:44;;;;;;;5.10;2.67;;;23.50;44.30;;;;;;5012598;28;20898;-47
2022/08/02 05:42:10;;;;;;;4.07;2.33;;;23.60;44.20;;;;;;5012705;28;20398;-46
2022/08/02 05:44:36;;;;;;;5.03;3.00;;;23.70;44.20;;;;;;5012839;28;20968;-47
2022/08/02 05:47:01;;;;;;;3.90;2.97;;;23.70;43.70;;;;;;5012268;28;20537;-47
2022/08/02 05:49:27;;;;;;;4.73;2.83;;;23.70;43.60;;;;;;5012699;28;20182;-47
2022/08/02 05:52:07;;;;;;;4.43;2.80;;;23.70;43.50;;;;;;5012507;28;20539;-48
2022/08/02 05:55:08;;;;;;;4.70;3.03;;;23.80;43.60;;;;;;5012742;28;20218;-47
2022/08/02 05:57:37;;;;;;;3.47;2.83;;;23.80;43.50;;;;;;4974349;28;20525;-48
2022/08/02 06:00:12;;;;;;;4.70;3.40;;;23.90;43.50;;;;;;5012621;28;20479;-49
2022/08/02 06:03:04;;;;;;;3.13;2.50;;;23.90;43.30;;;;;;5012536;28;20415;-49
2022/08/02 06:06:04;;;;;;;2.67;2.00;;;23.90;43.20;;;;;;5012466;28;20428;-47
2022/08/02 06:08:36;;;;;;;3.00;2.20;;;23.90;43.20;;;;;;5012381;28;20394;-46
2022/08/02 06:11:05;;;;;;;4.00;2.70;;;24.00;43.20;;;;;;5012427;28;20405;-47
2022/08/02 06:13:31;;;;;;;3.37;2.40;;;24.10;43.20;;;;;;5012160;28;21025;-46
2022/08/02 06:15:59;;;;;;;3.90;2.40;;;24.30;43.10;;;;;;5011922;28;20890;-48
2022/08/02 06:18:29;;;;;;;3.33;2.60;;;24.40;42.60;;;;;;5012324;28;20405;-48
2022/08/02 06:20:59;;;;;;;3.50;2.60;;;24.40;42.70;;;;;;5012238;28;20410;-50
2022/08/02 06:23:26;;;;;;;3.10;2.43;;;24.60;42.70;;;;;;5012366;28;20428;-48
2022/08/02 06:25:53;;;;;;;3.70;2.57;;;24.70;42.40;;;;;;5012181;28;20467;-46
2022/08/02 06:28:19;;;;;;;3.23;2.40;;;24.80;42.50;;;;;;5012363;28;20436;-47
2022/08/02 06:30:45;;;;;;;5.60;2.60;;;24.80;41.70;;;;;;5012080;28;20868;-45
2022/08/02 06:33:12;;;;;;;2.70;1.97;;;24.80;41.70;;;;;;5012248;28;20477;-46
2022/08/02 06:36:28;;;;;;;3.20;2.03;;;24.90;41.80;;;;;;5012152;28;20421;-46
2022/08/02 06:39:13;;;;;;;3.20;2.10;;;25.00;41.80;;;;;;4973400;28;20897;-45
2022/08/02 06:41:43;;;;;;;3.83;2.90;;;25.10;41.70;;;;;;5015926;28;20907;-46
2022/08/02 06:44:09;;;;;;;3.30;2.27;;;25.20;41.70;;;;;;5016190;28;20405;-45
2022/08/02 06:46:36;;;;;;;3.00;2.20;;;25.30;41.70;;;;;;5015462;28;20944;-45
2022/08/02 06:49:03;;;;;;;5.90;2.97;;;25.40;41.40;;;;;;5015760;28;20417;-46
2022/08/02 06:51:29;;;;;;;5.40;2.27;;;25.50;41.20;;;;;;5015799;28;20413;-46
2022/08/02 06:53:55;;;;;;;4.60;2.70;;;25.60;41.00;;;;;;5015534;28;20532;-47
2022/08/02 06:56:21;;;;;;;3.40;2.10;;;25.70;40.40;;;;;;5015659;28;20569;-47
2022/08/02 06:58:47;;;;;;;4.37;2.80;;;25.70;40.10;;;;;;5015586;28;20171;-47
2022/08/02 07:01:13;;;;;;;2.67;2.10;;;25.80;39.50;;;;;;5015593;28;20459;-47
2022/08/02 07:03:39;;;;;;;3.10;2.27;;;25.80;39.80;;;;;;5015490;28;20409;-47
2022/08/02 07:06:09;;;;;;;5.20;2.50;;;25.80;39.80;;;;;;5015234;28;20421;-47
2022/08/02 07:08:37;;;;;;;2.93;1.87;;;25.90;39.90;;;;;;5015393;28;20417;-46
2022/08/02 07:11:04;;;;;;;3.53;2.53;;;26.00;40.50;;;;;;5015427;28;20408;-46
2022/08/02 07:13:30;;;;;;;6.80;2.73;;;26.10;39.50;;;;;;5015296;28;20452;-45
2022/08/02 07:15:56;;;;;;;4.03;2.67;;;26.10;40.00;;;;;;5015244;28;20406;-46
2022/08/02 07:18:23;;;;;;;3.50;2.47;;;26.20;39.90;;;;;;5015393;28;20759;-45
2022/08/02 07:20:49;;;;;;;5.00;1.93;;;26.30;40.10;;;;;;5015253;28;20406;-47
2022/08/02 07:23:15;;;;;;;5.87;2.10;;;26.40;39.60;;;;;;5015034;28;20432;-47
2022/08/02 07:25:41;;;;;;;3.27;2.30;;;26.50;38.90;;;;;;5015038;28;20496;-45
2022/08/02 07:28:09;;;;;;;4.20;1.60;;;26.50;38.70;;;;;;5015259;28;20242;-47
2022/08/02 07:30:35;;;;;;;2.90;2.40;;;26.60;38.20;;;;;;5015071;28;20402;-45
2022/08/02 07:33:01;;;;;;;3.30;2.30;;;26.60;38.20;;;;;;5014930;28;20449;-46
2022/08/02 07:35:27;;;;;;;3.53;2.67;;;26.50;38.00;;;;;;5014883;28;20907;-46
2022/08/02 07:37:53;;;;;;;2.93;1.77;;;26.50;38.00;;;;;;5014905;28;20453;-46
2022/08/02 07:40:19;;;;;;;3.40;2.20;;;26.60;38.00;;;;;;5015055;28;20448;-46
2022/08/02 07:42:47;;;;;;;5.00;2.30;;;26.70;38.30;;;;;;5015084;28;20460;-46
2022/08/02 07:45:13;;;;;;;3.10;2.03;;;26.80;37.90;;;;;;5014747;28;20434;-48
2022/08/02 07:47:41;;;;;;;4.33;2.67;;;26.90;36.90;;;;;;5014326;28;20454;-48
2022/08/02 07:50:08;;;;;;;3.23;2.50;;;26.90;37.30;;;;;;5014376;28;20406;-49
2022/08/02 07:52:34;;;;;;;2.87;2.10;;;26.90;37.50;;;;;;5014527;28;20440;-48
2022/08/02 07:55:00;;;;;;;4.60;2.37;;;27.00;38.20;;;;;;5014192;28;20406;-47
2022/08/02 07:57:26;;;;;;;7.13;2.20;;;27.10;38.30;;;;;;5014221;28;20933;-47
2022/08/02 07:59:51;;;;;;;8.60;2.53;;;27.20;38.10;;;;;;5014596;28;20198;-46
2022/08/02 08:02:17;;;;;;;4.80;2.30;;;27.30;38.30;;;;;;5014570;28;20174;-45
2022/08/02 08:04:43;;;;;;;4.33;2.77;;;27.40;37.80;;;;;;5014421;28;20175;-46
2022/08/02 08:07:10;;;;;;;2.70;2.07;;;27.50;37.30;;;;;;5014025;28;20276;-47
2022/08/02 08:09:44;;;;;;;4.73;2.80;;;27.50;36.90;;;;;;4996855;28;20421;-45
2022/08/02 08:12:11;;;;;;;3.37;2.20;;;27.60;36.80;;;;;;5014569;28;20390;-46
2022/08/02 08:14:37;;;;;;;2.63;2.07;;;27.60;36.20;;;;;;5014070;28;20813;-46
2022/08/02 08:17:04;;;;;;;3.07;1.90;;;27.60;36.70;;;;;;5014185;28;20782;-44
2022/08/02 08:19:30;;;;;;;3.13;2.30;;;27.60;36.40;;;;;;5014077;28;20406;-46
2022/08/02 08:21:58;;;;;;;2.40;1.23;;;27.60;36.60;;;;;;5014300;28;20410;-46
2022/08/02 08:24:24;;;;;;;2.97;1.90;;;27.60;36.80;;;;;;5014088;28;20762;-45
2022/08/02 08:26:50;;;;;;;3.07;1.60;;;27.80;37.00;;;;;;5013791;28;20441;-47
2022/08/02 08:29:16;;;;;;;2.60;1.90;;;28.00;37.90;;;;;;5014048;28;20665;-47
2022/08/02 08:31:41;;;;;;;3.00;2.03;;;28.10;37.60;;;;;;5013874;28;20179;-47
2022/08/02 08:34:07;;;;;;;3.33;2.10;;;28.20;37.50;;;;;;5013760;28;20199;-49
2022/08/02 08:36:33;;;;;;;3.37;2.00;;;28.40;37.60;;;;;;5013489;28;20245;-46
2022/08/02 08:38:59;;;;;;;3.80;2.50;;;28.50;37.30;;;;;;5013747;28;20254;-47
2022/08/02 08:41:25;;;;;;;3.37;2.40;;;28.70;37.20;;;;;;5014088;28;20171;-45
2022/08/02 08:43:50;;;;;;;4.67;2.17;;;28.80;36.70;;;;;;5013736;28;20432;-46
2022/08/02 08:46:28;;;;;;;5.83;2.63;;;28.80;36.60;;;;;;5013205;28;20201;-46
2022/08/02 08:49:08;;;;;;;2.77;1.67;;;28.90;36.20;;;;;;5013644;28;20181;-46
2022/08/02 08:51:40;;;;;;;6.70;2.00;;;29.00;36.60;;;;;;5013790;28;20394;-46
2022/08/02 08:54:11;;;;;;;5.17;2.10;;;29.10;36.90;;;;;;5013424;28;20578;-46
2022/08/02 08:56:38;;;;;;;4.27;2.43;;;29.10;36.90;;;;;;5013224;28;20421;-46
2022/08/02 08:59:05;;;;;;;3.20;1.60;;;29.30;37.20;;;;;;5013590;28;20406;-46
2022/08/02 09:01:31;;;;;;;7.40;2.17;;;29.30;36.60;;;;;;5012598;28;20504;-46
2022/08/02 09:03:57;;;;;;;6.83;2.93;;;29.30;36.70;;;;;;5013485;28;20449;-45
2022/08/02 09:06:24;;;;;;;4.20;2.47;;;29.40;36.60;;;;;;5013156;28;20516;-47
2022/08/02 09:08:49;;;;;;;3.67;2.47;;;29.30;35.60;;;;;;5013246;28;20414;-46
2022/08/02 09:11:17;;;;;;;2.97;2.23;;;29.30;35.70;;;;;;5013149;28;20416;-48
2022/08/02 09:13:57;;;;;;;4.00;2.20;;;29.40;36.30;;;;;;5012969;28;20194;-49
2022/08/02 09:16:38;;;;;;;4.03;2.90;;;29.50;36.10;;;;;;5012948;28;20840;-48
2022/08/02 09:19:20;;;;;;;3.10;2.50;;;29.60;35.70;;;;;;5013231;28;20401;-48
2022/08/02 09:21:48;;;;;;;3.93;2.07;;;29.80;35.40;;;;;;5013387;28;20404;-46
2022/08/02 09:24:16;;;;;;;3.17;2.37;;;29.80;35.80;;;;;;5012896;28;20762;-47
2022/08/02 09:26:42;;;;;;;3.13;2.20;;;29.90;35.50;;;;;;5012885;28;20430;-47
2022/08/02 09:29:08;;;;;;;3.13;2.13;;;30.00;35.70;;;;;;5013172;28;20488;-48
2022/08/02 09:31:34;;;;;;;3.17;2.17;;;30.10;35.80;;;;;;5012783;28;20972;-47
2022/08/02 09:34:00;;;;;;;3.07;2.37;;;30.10;34.90;;;;;;5012670;28;20280;-47
2022/08/02 09:36:37;;;;;;;3.10;2.30;;;30.20;34.00;;;;;;5012266;28;20202;-46
2022/08/02 09:39:05;;;;;;;3.40;2.03;;;30.20;34.80;;;;;;5012957;28;20390;-45
2022/08/02 09:41:33;;;;;;;3.43;2.43;;;30.30;34.60;;;;;;5012619;28;20402;-45
2022/08/02 09:44:01;;;;;;;3.00;2.50;;;30.40;34.50;;;;;;5012612;28;20924;-46
2022/08/02 09:46:32;;;;;;;3.40;2.80;;;30.50;33.90;;;;;;5012271;28;20445;-46
2022/08/02 09:49:00;;;;;;;2.87;2.20;;;30.60;34.00;;;;;;5012551;28;20476;-46
2022/08/02 09:51:49;;;;;;;2.63;2.00;;;30.70;33.60;;;;;;5012551;28;20401;-46
2022/08/02 09:54:18;;;;;;;4.13;2.07;;;30.90;33.80;;;;;;5012751;28;20454;-46
2022/08/02 09:56:48;;;;;;;4.67;1.90;;;31.00;34.00;;;;;;5012492;28;20425;-46
2022/08/02 09:59:15;;;;;;;2.90;2.27;;;31.10;33.80;;;;;;5012390;28;20405;-46
2022/08/02 10:01:42;;;;;;;3.17;2.33;;;31.20;33.50;;;;;;5012342;28;20436;-46
2022/08/02 10:04:10;;;;;;;3.30;2.83;;;31.20;33.40;;;;;;5012627;28;20505;-46
2022/08/02 10:06:38;;;;;;;4.13;2.30;;;31.30;32.70;;;;;;5012168;28;20460;-46
2022/08/02 10:09:08;;;;;;;3.20;2.50;;;31.30;32.50;;;;;;5012436;28;20413;-47
2022/08/02 10:11:35;;;;;;;2.70;1.90;;;31.30;32.10;;;;;;5012276;28;20433;-47
2022/08/02 10:14:05;;;;;;;2.27;1.67;;;31.30;32.80;;;;;;5012140;28;20445;-47
2022/08/02 10:16:33;;;;;;;2.97;2.17;;;31.40;32.90;;;;;;5012246;28;20480;-47
2022/08/02 10:19:01;;;;;;;3.07;2.33;;;31.60;32.50;;;;;;5012279;28;20420;-46
2022/08/02 10:22:17;;;;;;;2.37;1.90;;;31.70;32.30;;;;;;5012485;28;20762;-47
2022/08/02 10:24:44;;;;;;;3.23;1.80;;;31.80;31.90;;;;;;4968389;28;20422;-47
2022/08/02 10:27:15;;;;;;;2.50;1.50;;;31.90;31.20;;;;;;4994360;28;20431;-49
2022/08/02 10:29:45;;;;;;;3.97;2.00;;;32.00;31.70;;;;;;5012417;28;20386;-47
2022/08/02 10:32:34;;;;;;;2.53;1.90;;;32.10;31.20;;;;;;5012187;28;20778;-48
2022/08/02 10:35:08;;;;;;;4.60;1.70;;;32.20;30.80;;;;;;5011491;28;20966;-48
2022/08/02 10:37:38;;;;;;;2.50;1.70;;;32.20;30.80;;;;;;5011870;28;20424;-47
2022/08/02 10:40:05;;;;;;;2.70;2.10;;;32.20;30.10;;;;;;5012347;28;20453;-47
2022/08/02 10:42:59;;;;;;;2.97;1.87;;;32.20;29.30;;;;;;5012022;28;20416;-47
2022/08/02 10:45:25;;;;;;;2.77;1.67;;;32.30;30.80;;;;;;5009427;28;20431;-46
2022/08/02 10:48:00;;;;;;;2.57;1.90;;;32.30;30.90;;;;;;5011719;28;20460;-47
2022/08/02 10:50:44;;;;;;;2.53;1.77;;;32.50;31.00;;;;;;5011882;28;20578;-47
2022/08/02 10:53:22;;;;;;;3.20;2.10;;;32.70;30.40;;;;;;5011961;28;20852;-47
2022/08/02 10:55:48;;;;;;;2.60;1.77;;;32.90;30.90;;;;;;5011611;28;20407;-46
2022/08/02 10:58:30;;;;;;;2.37;1.40;;;33.00;30.90;;;;;;5011846;28;20416;-47
2022/08/02 11:00:56;;;;;;;2.50;1.70;;;33.10;29.80;;;;;;5011869;28;20897;-47
2022/08/02 11:03:28;;;;;;;2.50;1.80;;;33.10;30.00;;;;;;5011808;28;20770;-48
2022/08/02 11:06:04;;;;;;;2.70;1.53;;;33.20;29.60;;;;;;5011646;28;20405;-47
2022/08/02 11:08:30;;;;;;;3.00;2.10;;;33.30;29.90;;;;;;5012059;28;20532;-47
2022/08/02 11:11:19;;;;;;;2.80;2.20;;;33.40;29.00;;;;;;5011920;28;20492;-47
2022/08/02 11:14:07;;;;;;;2.50;1.67;;;33.40;29.20;;;;;;4998973;28;20480;-48
2022/08/02 11:16:55;;;;;;;2.53;1.43;;;33.50;29.70;;;;;;5011356;28;20471;-48
2022/08/02 11:19:22;;;;;;;2.77;1.50;;;33.50;29.00;;;;;;5011592;28;20735;-47
2022/08/02 11:22:03;;;;;;;2.83;2.00;;;33.50;29.30;;;;;;5011581;28;20751;-47
2022/08/02 11:24:34;;;;;;;2.23;1.40;;;33.50;29.10;;;;;;5013888;28;20413;-47
2022/08/02 11:27:02;;;;;;;3.47;2.07;;;33.60;28.50;;;;;;5014867;28;20441;-47
2022/08/02 11:29:43;;;;;;;2.50;1.73;;;33.50;28.80;;;;;;5015329;28;20433;-47
2022/08/02 11:32:21;;;;;;;2.50;1.47;;;33.40;29.00;;;;;;5014957;28;20749;-47
2022/08/02 11:34:52;;;;;;;2.70;1.63;;;33.30;28.90;;;;;;5015202;28;20468;-47
2022/08/02 11:37:33;;;;;;;3.97;2.47;;;33.30;28.70;;;;;;5014595;28;20421;-47
2022/08/02 11:39:59;;;;;;;4.07;1.97;;;33.40;29.00;;;;;;5014801;28;20410;-47
2022/08/02 11:42:35;;;;;;;2.33;1.53;;;33.50;28.80;;;;;;5015027;28;20420;-48
2022/08/02 11:45:03;;;;;;;2.30;1.33;;;33.70;27.50;;;;;;5014837;28;20170;-47
2022/08/02 11:47:30;;;;;;;4.10;1.67;;;33.70;28.00;;;;;;5014250;28;20456;-47
2022/08/02 11:50:09;;;;;;;2.23;1.27;;;33.80;27.50;;;;;;5014647;28;20413;-47
2022/08/02 11:52:36;;;;;;;2.67;1.70;;;33.90;27.80;;;;;;5014850;28;20405;-47
2022/08/02 11:55:07;;;;;;;2.77;1.90;;;33.90;28.00;;;;;;5014810;28;20404;-48
2022/08/02 11:57:34;;;;;;;4.50;1.80;;;34.00;27.80;;;;;;5014362;28;20421;-48
2022/08/02 12:00:00;;;;;;;2.47;1.67;;;34.10;27.00;;;;;;5014531;28;20417;-47
2022/08/02 12:02:30;;;;;;;2.30;1.33;;;34.20;27.60;;;;;;5014452;28;20410;-47
2022/08/02 12:05:02;;;;;;;2.47;1.77;;;34.40;27.20;;;;;;5014450;28;20901;-47
2022/08/02 12:07:37;;;;;;;3.67;1.47;;;34.50;26.90;;;;;;5014383;28;20457;-47
2022/08/02 12:10:05;;;;;;;3.30;1.50;;;34.60;26.60;;;;;;5014594;28;20928;-47
2022/08/02 12:12:31;;;;;;;3.10;1.50;;;34.60;26.30;;;;;;5014512;28;20935;-47
2022/08/02 12:14:57;;;;;;;2.50;1.83;;;34.60;27.00;;;;;;5014438;28;20467;-47
2022/08/02 12:20:09;;;;;;;2.40;1.50;;;34.60;26.90;;;;;;5014564;28;20189;-47
2022/08/02 12:22:37;;;;;;;2.37;1.50;;;34.70;26.40;;;;;;5014295;28;20401;-47
2022/08/02 12:25:23;;;;;;;3.00;1.63;;;34.70;26.40;;;;;;5014168;28;20947;-47
2022/08/02 12:27:49;;;;;;;2.70;1.30;;;34.70;26.00;;;;;;5014073;28;20810;-47
2022/08/02 12:30:17;;;;;;;4.00;2.23;;;34.70;25.90;;;;;;5014334;28;20416;-47
2022/08/02 12:32:44;;;;;;;3.10;1.73;;;34.70;26.00;;;;;;5013936;28;20267;-48
2022/08/02 12:35:19;;;;;;;2.70;1.60;;;34.70;26.00;;;;;;5012928;28;20406;-47
2022/08/02 12:37:49;;;;;;;2.80;1.47;;;34.70;25.40;;;;;;5013667;28;20430;-47
2022/08/02 12:40:23;;;;;;;2.10;1.30;;;34.80;25.00;;;;;;5014201;28;20398;-47
2022/08/02 12:42:52;;;;;;;2.10;1.40;;;34.90;25.40;;;;;;5014153;28;20404;-48
2022/08/02 12:45:18;;;;;;;2.30;1.37;;;34.80;24.90;;;;;;5013968;28;20393;-47
2022/08/02 12:47:50;;;;;;;2.57;1.40;;;34.80;24.40;;;;;;4995912;28;20449;-47
2022/08/02 12:50:28;;;;;;;2.53;1.47;;;34.80;25.20;;;;;;5013605;28;21028;-47
2022/08/02 12:53:06;;;;;;;1.80;0.83;;;34.80;24.90;;;;;;5013797;28;20462;-47
2022/08/02 12:55:32;;;;;;;2.80;1.73;;;34.80;23.90;;;;;;5013650;28;20770;-47
2022/08/02 12:58:03;;;;;;;2.43;1.63;;;34.60;24.30;;;;;;5013493;28;20922;-47
2022/08/02 13:00:33;;;;;;;2.30;1.40;;;34.40;24.50;;;;;;5013728;28;20415;-47
2022/08/02 13:03:00;;;;;;;2.80;1.37;;;34.20;25.40;;;;;;5013493;28;20856;-47
2022/08/02 13:05:30;;;;;;;2.90;1.70;;;34.00;25.70;;;;;;5013356;28;20401;-47
2022/08/02 13:07:58;;;;;;;4.27;1.63;;;33.90;24.90;;;;;;5013085;28;20425;-47